Time;durP1;ratioP1;P1;durP2;ratioP2;P2;SDS_P1;SDS_P2;PMS_P1;PMS_P2;Temp;Humidity;BMP_temperature;BMP_pressure;BME280_temperature;BME280_humidity;BME280_pressure;Samples;Min_cycle;Max_cycle;Signal;HPM_P1;HPM_P2
2021/01/05 00:01:40;;;;;;;1.73;1.30;;;24.90;81.00;;;;;;5065166;28;20028;-55
2021/01/05 00:04:08;;;;;;;4.20;1.90;;;24.90;81.30;;;;;;5070692;28;20124;-54
2021/01/05 00:06:35;;;;;;;3.70;1.55;;;25.00;80.90;;;;;;5071253;28;20491;-53
2021/01/05 00:09:02;;;;;;;4.40;1.50;;;25.10;80.80;;;;;;5066408;28;20025;-60
2021/01/05 00:11:30;;;;;;;1.88;1.20;;;25.10;80.40;;;;;;5066746;28;20070;-57
2021/01/05 00:13:57;;;;;;;2.35;1.60;;;25.20;80.10;;;;;;5066910;28;20016;-60
2021/01/05 00:16:34;;;;;;;3.80;1.77;;;25.20;80.40;;;;;;5071011;28;20116;-52
2021/01/05 00:19:01;;;;;;;2.90;1.63;;;25.30;79.90;;;;;;5069660;28;20057;-49
2021/01/05 00:21:28;;;;;;;2.83;1.25;;;25.30;78.90;;;;;;5066265;28;20040;-67
2021/01/05 00:23:57;;;;;;;4.38;1.30;;;25.30;78.10;;;;;;5070766;28;20035;-64
2021/01/05 00:26:24;;;;;;;2.50;1.60;;;25.40;79.50;;;;;;5071040;28;20021;-53
2021/01/05 00:28:52;;;;;;;4.72;1.60;;;25.50;78.10;;;;;;5071586;28;20032;-63
2021/01/05 00:31:19;;;;;;;4.65;1.38;;;25.60;77.90;;;;;;5066021;28;20494;-60
2021/01/05 00:33:46;;;;;;;3.72;1.90;;;25.60;76.20;;;;;;5070115;28;20426;-59
2021/01/05 00:36:14;;;;;;;2.72;1.58;;;25.70;79.20;;;;;;5070268;28;20058;-64
2021/01/05 00:38:41;;;;;;;3.15;1.25;;;25.70;77.90;;;;;;5070340;28;20033;-55
2021/01/05 00:41:08;;;;;;;4.28;1.60;;;25.80;78.20;;;;;;5065721;28;20024;-61
2021/01/05 00:43:36;;;;;;;2.25;1.35;;;25.90;77.70;;;;;;5069706;28;20113;-56
2021/01/05 00:46:05;;;;;;;2.45;1.30;;;25.90;78.40;;;;;;5070095;28;20429;-53
2021/01/05 00:48:32;;;;;;;4.28;1.45;;;25.90;78.00;;;;;;5069925;28;20107;-54
2021/01/05 00:51:00;;;;;;;3.95;1.30;;;25.80;78.20;;;;;;5064639;28;21157;-58
2021/01/05 00:53:27;;;;;;;3.25;1.35;;;25.90;76.60;;;;;;5070635;28;20072;-48
2021/01/05 00:55:54;;;;;;;5.40;1.48;;;25.90;78.30;;;;;;5070312;28;20017;-52
2021/01/05 00:58:23;;;;;;;2.72;1.67;;;26.00;75.90;;;;;;5070526;28;20116;-60
2021/01/05 01:00:51;;;;;;;3.25;1.52;;;26.10;75.00;;;;;;5066106;28;20025;-54
2021/01/05 01:03:20;;;;;;;2.45;1.27;;;26.10;77.90;;;;;;5070588;28;20024;-54
2021/01/05 01:05:49;;;;;;;4.38;1.42;;;26.20;77.40;;;;;;5071339;28;20016;-55
2021/01/05 01:08:19;;;;;;;2.65;1.30;;;26.20;77.20;;;;;;5074324;28;20048;-53
2021/01/05 01:10:46;;;;;;;2.25;1.23;;;26.30;74.40;;;;;;5068831;28;20044;-54
2021/01/05 01:13:14;;;;;;;2.83;1.42;;;26.30;76.20;;;;;;5073884;28;20064;-55
2021/01/05 01:15:42;;;;;;;1.83;1.23;;;26.40;73.60;;;;;;5069619;28;20446;-58
2021/01/05 01:18:10;;;;;;;3.42;1.65;;;26.30;76.80;;;;;;5074158;28;20029;-64
2021/01/05 01:20:38;;;;;;;2.67;1.48;;;26.20;76.50;;;;;;5068572;28;21085;-59
2021/01/05 01:23:05;;;;;;;3.33;1.67;;;26.10;77.00;;;;;;5073155;28;20115;-54
2021/01/05 01:25:33;;;;;;;2.35;1.63;;;26.10;75.10;;;;;;5073758;28;20554;-63
2021/01/05 01:28:00;;;;;;;4.10;1.63;;;26.20;77.00;;;;;;5072795;28;20119;-64
2021/01/05 01:30:28;;;;;;;4.60;1.20;;;26.20;76.20;;;;;;5068533;28;20097;-61
2021/01/05 01:32:55;;;;;;;3.63;1.80;;;26.10;77.70;;;;;;5072184;28;20044;-54
2021/01/05 01:35:23;;;;;;;3.72;1.65;;;26.10;75.80;;;;;;5074078;28;20104;-57
2021/01/05 01:37:50;;;;;;;2.30;1.30;;;26.10;76.20;;;;;;5073777;28;20021;-54
2021/01/05 01:40:43;;;;;;;3.60;1.35;;;26.10;77.40;;;;;;5069995;28;20028;-62
2021/01/05 01:43:11;;;;;;;4.60;1.60;;;26.10;77.50;;;;;;5074782;28;20020;-58
2021/01/05 01:45:38;;;;;;;3.53;1.80;;;26.20;74.50;;;;;;5065215;28;20039;-56
2021/01/05 01:48:09;;;;;;;1.85;1.20;;;26.30;76.30;;;;;;5071071;28;20035;-52
2021/01/05 01:50:38;;;;;;;3.95;1.88;;;26.30;74.70;;;;;;5072277;28;20043;-51
2021/01/05 01:53:11;;;;;;;4.05;2.00;;;26.40;74.20;;;;;;5072789;28;20028;-64
2021/01/05 01:55:44;;;;;;;1.92;1.30;;;26.40;75.80;;;;;;5071244;28;20029;-53
2021/01/05 01:58:20;;;;;;;1.92;1.30;;;26.40;74.50;;;;;;5071135;28;20024;-56
2021/01/05 02:01:11;;;;;;;2.42;1.50;;;26.40;74.40;;;;;;5072687;28;20154;-52
2021/01/05 02:03:45;;;;;;;2.58;1.60;;;26.50;75.60;;;;;;5072387;28;20132;-52
2021/01/05 02:06:15;;;;;;;4.93;1.92;;;26.70;73.80;;;;;;5068543;28;20024;-50
2021/01/05 02:09:02;;;;;;;3.35;1.88;;;26.70;74.70;;;;;;5072765;28;20056;-54
2021/01/05 02:11:59;;;;;;;4.88;1.95;;;26.70;74.70;;;;;;5072453;28;20028;-60
2021/01/05 02:14:36;;;;;;;3.78;1.95;;;26.70;74.80;;;;;;5072856;28;20029;-55
2021/01/05 02:17:48;;;;;;;3.55;1.75;;;26.70;75.10;;;;;;5067581;28;20475;-54
2021/01/05 02:20:30;;;;;;;4.35;1.77;;;26.70;75.00;;;;;;5071780;28;20547;-52
2021/01/05 02:23:15;;;;;;;;;;;26.60;75.30;;;;;;5072853;28;20044;-66
2021/01/05 02:26:16;;;;;;;5.70;2.00;;;26.70;74.90;;;;;;5067393;28;19908;-62
2021/01/05 02:29:01;;;;;;;7.53;2.45;;;26.70;74.90;;;;;;5069626;28;20020;-55
2021/01/05 02:31:52;;;;;;;3.00;1.73;;;26.70;74.90;;;;;;5071618;28;20107;-63
2021/01/05 02:34:51;;;;;;;2.75;1.63;;;26.60;75.40;;;;;;5069625;28;20024;-55
2021/01/05 02:37:45;;;;;;;6.68;1.52;;;26.60;76.00;;;;;;5068543;28;20488;-55
2021/01/05 02:40:28;;;;;;;2.33;1.75;;;26.60;76.20;;;;;;5072383;28;20474;-55
2021/01/05 02:43:19;;;;;;;2.67;1.73;;;26.60;76.30;;;;;;5070131;28;20111;-54
2021/01/05 02:45:59;;;;;;;3.22;1.70;;;26.60;76.60;;;;;;5069140;28;20059;-57
2021/01/05 02:48:29;;;;;;;2.15;1.67;;;26.50;76.80;;;;;;5069521;28;20037;-59
2021/01/05 02:51:23;;;;;;;4.32;2.00;;;26.50;77.10;;;;;;5071864;28;20017;-55
2021/01/05 02:54:37;;;;;;;2.45;1.48;;;26.50;76.60;;;;;;5071614;28;20036;-56
2021/01/05 02:57:30;;;;;;;2.75;1.75;;;26.50;77.60;;;;;;5022984;28;20415;-62
2021/01/05 03:00:34;;;;;;;2.65;1.55;;;26.50;77.10;;;;;;5068286;28;20039;-63
2021/01/05 03:03:13;;;;;;;7.55;3.25;;;26.50;76.50;;;;;;5068996;28;20074;-58
2021/01/05 03:06:10;;;;;;;3.08;1.80;;;26.60;76.50;;;;;;5070288;28;20034;-62
2021/01/05 03:09:03;;;;;;;7.78;2.47;;;26.70;76.70;;;;;;5068557;28;20028;-62
2021/01/05 03:12:02;;;;;;;5.13;2.10;;;26.60;77.50;;;;;;5070938;28;20036;-59
2021/01/05 03:14:37;;;;;;;2.40;1.73;;;26.60;77.20;;;;;;5071580;28;20454;-60
2021/01/05 03:17:37;;;;;;;2.42;1.48;;;26.70;77.30;;;;;;5067286;28;20024;-54
2021/01/05 03:20:16;;;;;;;3.33;1.92;;;26.80;77.40;;;;;;5070900;28;20505;-61
2021/01/05 03:23:00;;;;;;;5.85;2.45;;;26.80;77.10;;;;;;5071250;28;20479;-53
2021/01/05 03:25:31;;;;;;;5.50;2.13;;;26.90;76.90;;;;;;5071033;28;20483;-57
2021/01/05 03:28:02;;;;;;;4.43;2.05;;;26.90;76.50;;;;;;5066103;28;20036;-59
2021/01/05 03:30:32;;;;;;;6.38;2.17;;;26.90;76.00;;;;;;5070036;28;20020;-54
2021/01/05 03:32:59;;;;;;;3.75;1.90;;;27.00;76.40;;;;;;5071383;28;20047;-58
2021/01/05 03:35:28;;;;;;;3.13;1.98;;;27.00;75.70;;;;;;5070621;28;20093;-52
2021/01/05 03:37:56;;;;;;;3.80;1.83;;;27.00;76.10;;;;;;5065197;28;20036;-53
2021/01/05 03:40:25;;;;;;;6.88;2.90;;;27.10;76.40;;;;;;5070469;28;20032;-58
2021/01/05 03:42:52;;;;;;;4.10;2.30;;;27.10;75.90;;;;;;5071354;28;20027;-56
2021/01/05 03:45:24;;;;;;;2.17;1.60;;;27.00;76.70;;;;;;5070321;28;20111;-59
2021/01/05 03:47:51;;;;;;;3.03;1.67;;;26.90;77.30;;;;;;5066001;28;20093;-52
2021/01/05 03:50:20;;;;;;;6.80;2.40;;;27.00;75.80;;;;;;5070226;28;20107;-51
2021/01/05 03:52:47;;;;;;;3.75;2.03;;;27.10;75.80;;;;;;5070956;28;20376;-51
2021/01/05 03:55:16;;;;;;;8.15;3.08;;;27.10;75.80;;;;;;5070999;28;20074;-48
2021/01/05 03:57:44;;;;;;;3.67;2.10;;;27.20;75.60;;;;;;5065813;28;20477;-52
2021/01/05 04:00:26;;;;;;;6.07;2.58;;;27.10;75.80;;;;;;5070277;28;20092;-55
2021/01/05 04:02:55;;;;;;;5.55;2.28;;;27.10;75.60;;;;;;5071434;28;20053;-61
2021/01/05 04:05:25;;;;;;;10.95;2.63;;;27.10;76.00;;;;;;5070489;28;20025;-55
2021/01/05 04:07:53;;;;;;;5.57;2.20;;;27.10;75.50;;;;;;5063316;28;20503;-57
2021/01/05 04:10:20;;;;;;;5.30;2.83;;;27.10;75.90;;;;;;5068802;28;20029;-55
2021/01/05 04:12:48;;;;;;;5.28;2.30;;;27.10;75.10;;;;;;5070674;28;20029;-61
2021/01/05 04:15:24;;;;;;;4.55;2.00;;;27.20;75.50;;;;;;5070499;28;20020;-60
2021/01/05 04:17:53;;;;;;;4.50;2.20;;;27.00;77.00;;;;;;5065310;28;20031;-57
2021/01/05 04:20:21;;;;;;;3.70;2.03;;;27.10;75.40;;;;;;5069302;28;20090;-60
2021/01/05 04:22:48;;;;;;;3.38;2.10;;;27.20;75.30;;;;;;5070697;28;20056;-51
2021/01/05 04:25:19;;;;;;;5.65;2.35;;;27.20;75.60;;;;;;5070781;28;20422;-62
2021/01/05 04:27:48;;;;;;;7.55;2.40;;;27.20;75.80;;;;;;5065452;28;20390;-59
2021/01/05 04:30:21;;;;;;;4.70;2.50;;;27.10;76.20;;;;;;5070017;28;20104;-63
2021/01/05 04:32:49;;;;;;;4.47;2.17;;;27.00;76.70;;;;;;5071255;28;20085;-55
2021/01/05 04:35:19;;;;;;;4.50;1.85;;;27.00;77.50;;;;;;5070656;28;20052;-50
2021/01/05 04:37:46;;;;;;;4.65;2.05;;;27.00;76.20;;;;;;5063619;28;20028;-59
2021/01/05 04:40:31;;;;;;;2.47;1.75;;;27.00;76.40;;;;;;5069185;28;20168;-57
2021/01/05 04:43:23;;;;;;;2.65;1.70;;;27.00;77.50;;;;;;5070376;28;20055;-63
2021/01/05 04:46:11;;;;;;;4.55;2.33;;;27.00;77.10;;;;;;5065716;28;20074;-55
2021/01/05 04:48:52;;;;;;;3.90;2.30;;;26.90;77.50;;;;;;5066795;28;20052;-50
2021/01/05 04:51:37;;;;;;;3.03;1.90;;;26.80;77.10;;;;;;5068865;28;20463;-53
2021/01/05 04:54:23;;;;;;;2.65;2.10;;;26.80;77.50;;;;;;5066600;28;20031;-54
2021/01/05 04:57:11;;;;;;;2.80;2.08;;;26.80;78.00;;;;;;5063623;28;20201;-58
2021/01/05 04:59:58;;;;;;;4.80;2.20;;;26.70;78.40;;;;;;5066334;28;20036;-55
2021/01/05 05:02:29;;;;;;;4.95;1.90;;;26.60;78.60;;;;;;5068443;28;20044;-55
2021/01/05 05:04:59;;;;;;;3.17;1.92;;;26.70;78.60;;;;;;5070429;28;20032;-58
2021/01/05 05:07:32;;;;;;;3.90;2.00;;;26.70;78.60;;;;;;5064173;28;20033;-59
2021/01/05 05:10:26;;;;;;;3.65;1.80;;;26.60;78.90;;;;;;5069647;28;20075;-59
2021/01/05 05:13:29;;;;;;;3.92;2.25;;;26.70;78.20;;;;;;5068253;28;20107;-55
2021/01/05 05:16:33;;;;;;;3.00;1.90;;;26.70;78.80;;;;;;5061812;28;20090;-53
2021/01/05 05:19:47;;;;;;;4.85;2.20;;;26.70;78.50;;;;;;5068642;28;20027;-56
2021/01/05 05:22:43;;;;;;;4.05;2.20;;;26.70;77.70;;;;;;5067988;28;20119;-57
2021/01/05 05:25:36;;;;;;;3.05;1.83;;;26.80;78.10;;;;;;5048826;28;20032;-61
2021/01/05 05:28:21;;;;;;;5.20;2.40;;;26.70;77.00;;;;;;5064283;28;20045;-58
2021/01/05 05:30:49;;;;;;;5.00;1.77;;;26.70;77.40;;;;;;5068978;28;20032;-51
2021/01/05 05:33:24;;;;;;;4.65;2.20;;;26.70;78.40;;;;;;5070028;28;20104;-64
2021/01/05 05:36:16;;;;;;;4.43;2.03;;;26.60;77.70;;;;;;5066248;28;20029;-51
2021/01/05 05:39:02;;;;;;;;;;;26.60;77.90;;;;;;5066042;28;20083;-63
2021/01/05 05:41:51;;;;;;;4.10;2.03;;;26.50;79.30;;;;;;5068648;28;19972;-55
2021/01/05 05:44:28;;;;;;;2.28;1.80;;;26.50;79.10;;;;;;5069910;28;20028;-62
2021/01/05 05:47:06;;;;;;;2.88;1.65;;;26.50;79.30;;;;;;5064771;28;20120;-60
2021/01/05 05:49:40;;;;;;;3.03;1.92;;;26.50;79.30;;;;;;5068509;28;20100;-54
2021/01/05 05:52:25;;;;;;;3.17;1.70;;;26.50;79.10;;;;;;5069474;28;20112;-57
2021/01/05 05:54:53;;;;;;;4.07;1.92;;;26.50;79.40;;;;;;5070272;28;20078;-52
2021/01/05 05:57:39;;;;;;;4.85;1.95;;;26.50;79.20;;;;;;5066588;28;20024;-54
2021/01/05 06:00:41;;;;;;;7.43;2.30;;;26.60;78.70;;;;;;5072766;28;20027;-54
2021/01/05 06:03:14;;;;;;;5.63;2.53;;;26.60;77.80;;;;;;5070426;28;20037;-56
2021/01/05 06:05:43;;;;;;;3.80;1.88;;;26.70;76.90;;;;;;5070900;28;20020;-51
2021/01/05 06:08:16;;;;;;;7.25;2.25;;;26.70;77.90;;;;;;5070418;28;20064;-63
2021/01/05 06:10:43;;;;;;;2.90;1.90;;;26.70;77.50;;;;;;5071659;28;20467;-51
2021/01/05 06:13:11;;;;;;;3.95;1.95;;;26.70;78.30;;;;;;5073054;28;20472;-57
2021/01/05 06:15:40;;;;;;;5.07;2.05;;;26.70;76.60;;;;;;5072595;28;20047;-62
2021/01/05 06:18:13;;;;;;;4.53;2.20;;;26.70;76.90;;;;;;5069424;28;20119;-52
2021/01/05 06:20:41;;;;;;;4.93;2.03;;;26.70;76.30;;;;;;5070893;28;20129;-56
2021/01/05 06:23:08;;;;;;;5.28;2.13;;;26.70;77.00;;;;;;5072943;28;20089;-64
2021/01/05 06:25:37;;;;;;;7.15;2.00;;;26.80;76.20;;;;;;5072939;28;20027;-62
2021/01/05 06:28:06;;;;;;;2.85;1.95;;;26.80;76.80;;;;;;5067968;28;20068;-52
2021/01/05 06:30:34;;;;;;;3.67;1.90;;;26.80;78.00;;;;;;5071386;28;20051;-56
2021/01/05 06:33:01;;;;;;;3.05;1.83;;;26.70;78.60;;;;;;5071187;28;20056;-53
2021/01/05 06:35:28;;;;;;;3.50;2.00;;;26.60;79.00;;;;;;5072225;28;20051;-59
2021/01/05 06:37:56;;;;;;;3.35;1.73;;;26.60;78.90;;;;;;5067747;28;20448;-55
2021/01/05 06:40:26;;;;;;;2.67;1.80;;;26.60;79.10;;;;;;5069820;28;20076;-56
2021/01/05 06:42:55;;;;;;;6.57;2.55;;;26.60;79.30;;;;;;5072941;28;20107;-49
2021/01/05 06:45:28;;;;;;;2.92;1.92;;;26.50;79.40;;;;;;5072177;28;20496;-51
2021/01/05 06:47:57;;;;;;;3.42;1.88;;;26.50;79.70;;;;;;5067395;28;20041;-49
2021/01/05 06:50:26;;;;;;;3.53;2.20;;;26.40;79.60;;;;;;5071247;28;20439;-48
2021/01/05 06:52:53;;;;;;;2.78;1.73;;;26.40;79.90;;;;;;5071914;28;20093;-54
2021/01/05 06:55:21;;;;;;;5.22;2.38;;;26.40;80.10;;;;;;5072263;28;20098;-58
2021/01/05 06:57:49;;;;;;;3.67;2.00;;;26.40;80.00;;;;;;5067329;28;20438;-55
2021/01/05 07:00:27;;;;;;;4.25;1.98;;;26.30;80.40;;;;;;5070914;28;20028;-53
2021/01/05 07:02:55;;;;;;;7.13;5.63;;;26.20;80.70;;;;;;5070579;28;20483;-56
2021/01/05 07:05:23;;;;;;;8.68;6.28;;;26.20;81.20;;;;;;5071833;28;20040;-59
2021/01/05 07:07:51;;;;;;;6.65;4.80;;;26.20;81.10;;;;;;5066891;28;20808;-58
2021/01/05 07:10:20;;;;;;;8.13;7.07;;;26.10;81.20;;;;;;5071873;28;20021;-60
2021/01/05 07:12:49;;;;;;;8.52;7.72;;;26.00;82.10;;;;;;5071362;28;20368;-60
2021/01/05 07:15:18;;;;;;;6.72;6.10;;;26.00;82.40;;;;;;5070710;28;20033;-61
2021/01/05 07:17:46;;;;;;;10.20;5.68;;;26.00;82.50;;;;;;5066780;28;20386;-57
2021/01/05 07:20:15;;;;;;;12.30;6.25;;;26.10;83.40;;;;;;5071294;28;20115;-59
2021/01/05 07:22:42;;;;;;;8.55;7.75;;;26.00;83.40;;;;;;5070382;28;20032;-61
2021/01/05 07:25:12;;;;;;;10.38;9.43;;;26.00;82.90;;;;;;5067877;28;20032;-59
2021/01/05 07:27:40;;;;;;;8.15;7.22;;;26.00;82.80;;;;;;5066626;28;20341;-55
2021/01/05 07:30:09;;;;;;;10.32;9.23;;;26.00;83.20;;;;;;5071687;28;20497;-55
2021/01/05 07:32:36;;;;;;;9.55;8.13;;;25.90;83.00;;;;;;5070121;28;20067;-50
2021/01/05 07:35:04;;;;;;;10.07;7.75;;;25.90;83.10;;;;;;5071490;28;20020;-60
2021/01/05 07:37:36;;;;;;;11.32;10.38;;;25.90;83.50;;;;;;5066325;28;20435;-64
2021/01/05 07:40:05;;;;;;;9.40;8.40;;;25.90;83.40;;;;;;5071668;28;20382;-51
2021/01/05 07:42:34;;;;;;;20.50;7.78;;;25.90;83.30;;;;;;5069226;28;20029;-54
2021/01/05 07:45:10;;;;;;;12.18;11.15;;;25.90;83.50;;;;;;5071074;28;20033;-57
2021/01/05 07:47:39;;;;;;;12.48;11.25;;;25.90;83.10;;;;;;5065895;28;20033;-57
2021/01/05 07:50:15;;;;;;;17.13;11.60;;;25.90;83.00;;;;;;5071314;28;20112;-67
2021/01/05 07:52:43;;;;;;;13.52;12.18;;;25.90;83.10;;;;;;5069793;28;20142;-62
2021/01/05 07:55:20;;;;;;;14.57;13.10;;;25.80;83.10;;;;;;5069823;28;20027;-59
2021/01/05 07:57:49;;;;;;;10.27;9.27;;;25.80;83.40;;;;;;5066825;28;20028;-64
2021/01/05 08:00:19;;;;;;;11.10;10.10;;;25.70;83.00;;;;;;5070720;28;20025;-63
2021/01/05 08:02:47;;;;;;;10.57;9.55;;;25.80;83.40;;;;;;5068701;28;20111;-49
2021/01/05 08:05:17;;;;;;;12.18;11.02;;;25.70;83.20;;;;;;5071191;28;20020;-60
2021/01/05 08:07:45;;;;;;;9.43;8.48;;;25.70;83.70;;;;;;5063114;28;20110;-54
2021/01/05 08:10:23;;;;;;;10.65;9.65;;;25.70;83.10;;;;;;5071116;28;20029;-58
2021/01/05 08:12:51;;;;;;;10.27;9.23;;;25.70;82.90;;;;;;5069924;28;20052;-59
2021/01/05 08:15:22;;;;;;;9.77;8.88;;;25.70;83.30;;;;;;5070289;28;20107;-51
2021/01/05 08:17:51;;;;;;;9.32;8.38;;;25.70;83.70;;;;;;5066144;28;20024;-66
2021/01/05 08:20:24;;;;;;;10.63;9.25;;;25.60;83.50;;;;;;5070745;28;20040;-62
2021/01/05 08:22:52;;;;;;;9.18;8.27;;;25.70;83.90;;;;;;5068519;28;20039;-54
2021/01/05 08:25:21;;;;;;;8.82;7.93;;;25.60;83.70;;;;;;5070526;28;20029;-56
2021/01/05 08:27:50;;;;;;;9.43;8.40;;;25.60;84.10;;;;;;5065610;28;20445;-54
2021/01/05 08:30:24;;;;;;;12.70;8.00;;;25.60;84.20;;;;;;5070548;28;20032;-53
2021/01/05 08:32:52;;;;;;;9.00;7.95;;;25.60;84.50;;;;;;5069359;28;20029;-52
2021/01/05 08:35:23;;;;;;;9.77;8.48;;;25.60;84.90;;;;;;5070286;28;20433;-56
2021/01/05 08:37:50;;;;;;;10.13;8.50;;;25.60;85.10;;;;;;5065530;28;20059;-57
2021/01/05 08:40:27;;;;;;;10.18;7.63;;;25.50;85.20;;;;;;5070502;28;20020;-59
2021/01/05 08:42:59;;;;;;;17.35;8.65;;;25.50;85.50;;;;;;5066684;28;20040;-57
2021/01/05 08:45:27;;;;;;;10.55;8.52;;;25.50;86.00;;;;;;5070727;28;20523;-54
2021/01/05 08:47:55;;;;;;;17.25;10.05;;;25.50;85.80;;;;;;5063085;28;20072;-61
2021/01/05 08:50:28;;;;;;;23.90;11.55;;;25.60;85.90;;;;;;5067920;28;20467;-58
2021/01/05 08:53:00;;;;;;;35.42;13.00;;;25.60;86.10;;;;;;5069579;28;20028;-64
2021/01/05 08:55:28;;;;;;;34.40;13.73;;;25.60;86.10;;;;;;5068628;28;20016;-60
2021/01/05 08:57:55;;;;;;;41.58;15.18;;;25.60;86.20;;;;;;5063399;28;20123;-55
2021/01/05 09:00:23;;;;;;;41.20;16.25;;;25.60;86.30;;;;;;5068366;28;20024;-55
2021/01/05 09:02:50;;;;;;;40.38;15.30;;;25.50;86.40;;;;;;5069143;28;20036;-58
2021/01/05 09:05:18;;;;;;;41.70;15.50;;;25.60;86.60;;;;;;5066956;28;20486;-61
2021/01/05 09:07:46;;;;;;;42.92;16.83;;;25.50;86.70;;;;;;5062844;28;20044;-56
2021/01/05 09:10:24;;;;;;;38.67;15.40;;;25.50;86.80;;;;;;5066727;28;20104;-52
2021/01/05 09:12:51;;;;;;;36.78;15.43;;;25.50;86.80;;;;;;5064287;28;20059;-56
2021/01/05 09:15:21;;;;;;;42.08;16.33;;;25.50;86.70;;;;;;5067035;28;20021;-57
2021/01/05 09:17:50;;;;;;;35.30;13.52;;;25.40;86.50;;;;;;5065139;28;20027;-55
2021/01/05 09:20:21;;;;;;;36.63;15.50;;;25.40;86.50;;;;;;5070186;28;20072;-56
2021/01/05 09:22:49;;;;;;;37.53;15.13;;;25.40;86.70;;;;;;5065401;28;20124;-50
2021/01/05 09:25:17;;;;;;;37.15;15.75;;;25.30;86.80;;;;;;5066395;28;20143;-56
2021/01/05 09:27:44;;;;;;;45.97;14.90;;;25.30;87.10;;;;;;5065522;28;20032;-52
2021/01/05 09:30:18;;;;;;;40.88;15.40;;;25.20;87.50;;;;;;5072718;28;20461;-62
2021/01/05 09:32:46;;;;;;;34.55;15.18;;;25.30;87.80;;;;;;5070271;28;20034;-54
2021/01/05 09:35:13;;;;;;;41.95;15.63;;;25.20;87.70;;;;;;5072649;28;20110;-60
2021/01/05 09:37:44;;;;;;;33.78;15.20;;;25.30;87.70;;;;;;5067858;28;20037;-56
2021/01/05 09:40:14;;;;;;;37.55;15.82;;;25.30;87.70;;;;;;5073489;28;20470;-57
2021/01/05 09:42:41;;;;;;;40.45;16.67;;;25.20;87.50;;;;;;5072779;28;20028;-59
2021/01/05 09:45:09;;;;;;;35.63;15.23;;;25.20;87.60;;;;;;5073429;28;20048;-56
2021/01/05 09:47:37;;;;;;;37.15;15.85;;;25.20;87.60;;;;;;5068488;28;20560;-58
2021/01/05 09:50:06;;;;;;;40.83;16.15;;;25.20;87.60;;;;;;5072829;28;20031;-55
2021/01/05 09:52:35;;;;;;;37.95;15.07;;;25.20;87.60;;;;;;5072659;28;20166;-56
2021/01/05 09:55:04;;;;;;;36.60;15.43;;;25.20;87.60;;;;;;5073213;28;20032;-56
2021/01/05 09:57:31;;;;;;;38.85;14.82;;;25.20;87.60;;;;;;5068804;28;20033;-53
2021/01/05 09:59:58;;;;;;;38.95;15.60;;;25.20;87.60;;;;;;5073090;28;20027;-57
2021/01/05 10:02:27;;;;;;;35.97;14.15;;;25.20;87.70;;;;;;5072895;28;20040;-54
2021/01/05 10:04:54;;;;;;;35.47;13.23;;;25.20;87.50;;;;;;5073472;28;20521;-58
2021/01/05 10:07:23;;;;;;;39.03;14.07;;;25.10;87.50;;;;;;5068256;28;20052;-59
2021/01/05 10:09:50;;;;;;;34.58;14.38;;;25.10;87.70;;;;;;5073398;28;20017;-59
2021/01/05 10:12:18;;;;;;;35.42;13.98;;;25.10;87.60;;;;;;5072625;28;20037;-56
2021/01/05 10:14:45;;;;;;;34.38;14.93;;;25.10;87.60;;;;;;5073441;28;20360;-63
2021/01/05 10:17:12;;;;;;;30.60;14.73;;;25.10;87.70;;;;;;5068443;28;20102;-62
2021/01/05 10:19:40;;;;;;;34.10;14.40;;;25.10;87.70;;;;;;5071331;28;20032;-61
2021/01/05 10:22:07;;;;;;;35.67;14.27;;;25.10;87.80;;;;;;5072155;28;20052;-64
2021/01/05 10:24:34;;;;;;;33.85;14.52;;;25.00;87.60;;;;;;5073344;28;20032;-51
2021/01/05 10:27:02;;;;;;;28.73;12.93;;;25.10;87.70;;;;;;5067583;28;20089;-60
2021/01/05 10:29:29;;;;;;;31.02;13.80;;;25.10;87.60;;;;;;5073035;28;20021;-61
2021/01/05 10:31:56;;;;;;;32.75;13.57;;;25.00;87.60;;;;;;5072603;28;20043;-60
2021/01/05 10:34:25;;;;;;;30.23;11.93;;;25.00;87.60;;;;;;5072878;28;20033;-63
2021/01/05 10:36:57;;;;;;;30.17;13.93;;;25.00;87.60;;;;;;5067597;28;20120;-54
2021/01/05 10:39:26;;;;;;;29.30;12.85;;;25.00;87.70;;;;;;5054251;28;20035;-55
2021/01/05 10:41:53;;;;;;;30.38;12.90;;;25.00;87.70;;;;;;5072078;28;20032;-54
2021/01/05 10:44:22;;;;;;;30.05;12.95;;;25.00;87.60;;;;;;5072650;28;20078;-61
2021/01/05 10:46:55;;;;;;;27.35;11.85;;;24.90;87.70;;;;;;5067538;28;20432;-56
2021/01/05 10:49:23;;;;;;;32.60;12.85;;;24.90;87.70;;;;;;5072470;28;20108;-61
2021/01/05 10:51:52;;;;;;;30.10;11.60;;;24.90;87.70;;;;;;5071885;28;20020;-60
2021/01/05 10:54:20;;;;;;;31.00;13.90;;;24.90;87.80;;;;;;5072659;28;20104;-59
2021/01/05 10:57:02;;;;;;;26.92;12.38;;;24.90;87.70;;;;;;5067512;28;20475;-60
2021/01/05 10:59:30;;;;;;;31.20;12.15;;;24.90;87.80;;;;;;5072246;28;20029;-62
2021/01/05 11:02:02;;;;;;;26.77;11.25;;;24.90;87.70;;;;;;5071879;28;20111;-61
2021/01/05 11:04:30;;;;;;;29.38;12.50;;;24.90;87.80;;;;;;5072614;28;20056;-60
2021/01/05 11:07:01;;;;;;;23.17;10.80;;;24.90;87.70;;;;;;5066919;28;20033;-67
2021/01/05 11:09:28;;;;;;;23.95;11.18;;;24.80;87.80;;;;;;5072319;28;20024;-62
2021/01/05 11:12:01;;;;;;;24.17;10.30;;;24.90;87.90;;;;;;5071604;28;20016;-63
2021/01/05 11:14:29;;;;;;;20.60;10.52;;;24.80;87.90;;;;;;5072080;28;20032;-55
2021/01/05 11:16:56;;;;;;;23.77;10.60;;;24.90;87.90;;;;;;5066711;28;20021;-67
2021/01/05 11:19:24;;;;;;;18.38;9.20;;;24.80;88.50;;;;;;5071654;28;20028;-65
2021/01/05 11:21:59;;;;;;;23.00;9.82;;;24.80;88.00;;;;;;5071191;28;20075;-53
2021/01/05 11:24:28;;;;;;;24.75;10.73;;;24.80;88.00;;;;;;5072123;28;20486;-58
2021/01/05 11:26:57;;;;;;;23.00;11.10;;;24.80;88.00;;;;;;5067340;28;20024;-54
2021/01/05 11:29:26;;;;;;;20.42;10.35;;;24.70;88.00;;;;;;5071437;28;20032;-54
2021/01/05 11:32:00;;;;;;;21.70;10.35;;;24.70;88.00;;;;;;5071292;28;20020;-54
2021/01/05 11:34:29;;;;;;;22.30;9.93;;;24.70;88.10;;;;;;5069018;28;20064;-52
2021/01/05 11:37:02;;;;;;;25.35;10.43;;;24.70;88.30;;;;;;5062799;28;20029;-53
2021/01/05 11:39:30;;;;;;;20.38;9.00;;;24.70;88.30;;;;;;5069695;28;20028;-50
2021/01/05 11:42:01;;;;;;;20.98;9.65;;;24.70;88.30;;;;;;5072954;28;20065;-68
2021/01/05 11:44:29;;;;;;;19.23;9.23;;;24.60;88.40;;;;;;5072846;28;20039;-68
2021/01/05 11:46:57;;;;;;;23.52;9.50;;;24.60;88.40;;;;;;5072802;28;20036;-59
2021/01/05 11:49:25;;;;;;;20.98;9.57;;;24.60;88.60;;;;;;5072272;28;20972;-63
2021/01/05 11:51:54;;;;;;;19.63;9.40;;;24.50;88.60;;;;;;5071725;28;20028;-62
2021/01/05 11:54:23;;;;;;;19.55;9.07;;;24.50;88.70;;;;;;5072673;28;20060;-64
2021/01/05 11:56:55;;;;;;;19.90;9.27;;;24.50;88.80;;;;;;5072804;28;20020;-62
2021/01/05 11:59:23;;;;;;;21.67;9.10;;;24.50;89.00;;;;;;5072448;28;20028;-57
2021/01/05 12:01:51;;;;;;;20.35;9.32;;;24.40;89.10;;;;;;5072544;28;20029;-65
2021/01/05 12:04:18;;;;;;;20.70;8.55;;;24.40;89.20;;;;;;5072601;28;20023;-64
2021/01/05 12:06:51;;;;;;;15.68;7.65;;;24.40;89.30;;;;;;5071382;28;20410;-57
2021/01/05 12:09:20;;;;;;;18.35;8.55;;;24.40;89.40;;;;;;5072316;28;20086;-65
2021/01/05 12:11:48;;;;;;;16.00;8.40;;;24.30;89.60;;;;;;5072459;28;20027;-63
2021/01/05 12:14:16;;;;;;;22.25;9.13;;;24.30;89.50;;;;;;5072372;28;20090;-65
2021/01/05 12:16:48;;;;;;;17.73;8.52;;;24.30;89.80;;;;;;5072665;28;20031;-60
2021/01/05 12:19:26;;;;;;;17.42;8.48;;;24.30;89.70;;;;;;5072443;28;20017;-59
2021/01/05 12:22:03;;;;;;;18.05;8.13;;;24.30;89.80;;;;;;5071917;28;20037;-54
2021/01/05 12:24:32;;;;;;;15.27;8.30;;;24.30;89.90;;;;;;5072200;28;20490;-62
2021/01/05 12:27:03;;;;;;;16.08;7.95;;;24.30;90.00;;;;;;5072247;28;20024;-57
2021/01/05 12:29:39;;;;;;;15.80;7.50;;;24.20;90.00;;;;;;5072073;28;20028;-64
2021/01/05 12:32:14;;;;;;;21.55;8.38;;;24.20;90.00;;;;;;5072391;28;20020;-67
2021/01/05 12:34:45;;;;;;;15.98;6.75;;;24.10;90.00;;;;;;5071935;28;20039;-63
2021/01/05 12:37:15;;;;;;;18.92;8.30;;;24.10;90.10;;;;;;5070898;28;20067;-55
2021/01/05 12:39:43;;;;;;;16.00;7.53;;;24.10;90.10;;;;;;5071582;28;20060;-61
2021/01/05 12:42:22;;;;;;;14.63;6.72;;;24.10;90.10;;;;;;5072337;28;20040;-57
2021/01/05 12:44:52;;;;;;;16.52;7.57;;;24.00;90.20;;;;;;5072182;28;20074;-61
2021/01/05 12:47:20;;;;;;;12.93;7.03;;;24.00;90.20;;;;;;5072242;28;20036;-65
2021/01/05 12:49:49;;;;;;;16.50;7.15;;;24.00;90.20;;;;;;5071443;28;20020;-58
2021/01/05 12:52:17;;;;;;;16.30;7.90;;;23.90;90.30;;;;;;5071986;28;20025;-64
2021/01/05 12:54:45;;;;;;;19.88;7.47;;;24.00;90.30;;;;;;5072150;28;20040;-60
2021/01/05 12:57:15;;;;;;;14.57;7.13;;;23.90;90.40;;;;;;5071977;28;20522;-65
2021/01/05 12:59:47;;;;;;;14.60;6.70;;;23.90;90.30;;;;;;5071817;28;20294;-66
2021/01/05 13:02:16;;;;;;;;;;;23.90;90.40;;;;;;5074792;28;20064;-53
2021/01/05 13:04:43;;;;;;;12.73;6.88;;;23.90;90.40;;;;;;5075503;28;19904;-60
2021/01/05 13:07:11;;;;;;;13.05;5.95;;;23.90;90.40;;;;;;5076079;28;20021;-58
2021/01/05 13:09:38;;;;;;;16.05;7.60;;;23.90;90.40;;;;;;5076118;28;20444;-58